createdAt,value
2022-12-12T00:00:28.467Z,-7.68
2022-12-12T00:02:56.864Z,-7.77
2022-12-12T00:05:23.568Z,-7.74
2022-12-12T00:07:50.540Z,-6.92
2022-12-12T00:10:17.307Z,-7.15
2022-12-12T00:12:44.042Z,-6.88
2022-12-12T00:15:11.259Z,-7.19
2022-12-12T00:17:38.442Z,-7.24
2022-12-12T00:20:05.649Z,-8.72
2022-12-12T00:22:32.908Z,-7.32
2022-12-12T00:24:59.560Z,-7.90
2022-12-12T00:27:26.302Z,-8.23
2022-12-12T00:29:54.225Z,-6.83
2022-12-12T00:32:21.749Z,-6.94
2022-12-12T00:34:49.717Z,-8.00
2022-12-12T00:37:17.162Z,-7.97
2022-12-12T00:39:43.855Z,-7.22
2022-12-12T00:42:10.570Z,-8.02
2022-12-12T00:44:37.261Z,-7.97
2022-12-12T00:47:04.049Z,-7.27
2022-12-12T00:49:31.002Z,-8.25
2022-12-12T00:51:57.734Z,-7.56
2022-12-12T00:54:24.846Z,-7.46
2022-12-12T00:56:51.813Z,-8.28
2022-12-12T00:59:19.804Z,-8.83
2022-12-12T01:01:47.924Z,-8.19
2022-12-12T01:04:15.852Z,-7.38
2022-12-12T01:06:42.627Z,-7.85
2022-12-12T01:09:09.377Z,-8.58
2022-12-12T01:11:36.155Z,-7.57
2022-12-12T01:14:02.947Z,-7.94
2022-12-12T01:16:33.390Z,-8.52
2022-12-12T01:19:00.137Z,-8.29
2022-12-12T01:21:27.114Z,-7.90
2022-12-12T01:23:53.818Z,-7.18
2022-12-12T01:26:24.237Z,-7.86
2022-12-12T01:28:51.837Z,-7.41
2022-12-12T01:31:18.823Z,-6.96
2022-12-12T01:33:46.285Z,-7.16
2022-12-12T01:36:18.490Z,-8.31
2022-12-12T01:38:47.460Z,-7.43
2022-12-12T01:41:15.275Z,-8.23
2022-12-12T01:43:42.371Z,-7.09
2022-12-12T01:46:27.706Z,-7.06
2022-12-12T01:49:06.726Z,-7.19
2022-12-12T01:51:34.222Z,-7.31
2022-12-12T01:54:16.145Z,-8.54
2022-12-12T01:56:45.683Z,-7.92
2022-12-12T01:59:15.756Z,-7.86
2022-12-12T02:01:42.912Z,-6.68
2022-12-12T02:04:11.575Z,-6.92
2022-12-12T02:06:39.649Z,-7.40
2022-12-12T02:09:10.199Z,-7.83
2022-12-12T02:11:46.933Z,-6.98
2022-12-12T02:14:17.914Z,-8.06
2022-12-12T02:17:14.227Z,-7.02
2022-12-12T02:20:05.526Z,-7.00
2022-12-12T02:23:09.884Z,-6.89
2022-12-12T02:26:10.721Z,-6.92
2022-12-12T02:28:40.230Z,-6.80
2022-12-12T02:31:12.984Z,-6.75
2022-12-12T02:33:54.711Z,-6.89
2022-12-12T02:36:36.160Z,-8.08
2022-12-12T02:39:16.639Z,-6.89
2022-12-12T02:41:47.449Z,-6.82
2022-12-12T02:44:52.422Z,-7.77
2022-12-12T02:47:24.046Z,-7.30
2022-12-12T02:49:56.595Z,-7.58
2022-12-12T02:52:24.002Z,-7.16
2022-12-12T02:54:50.740Z,-6.95
2022-12-12T02:57:20.654Z,-7.73
2022-12-12T02:59:53.446Z,-7.23
2022-12-12T03:02:47.640Z,-7.16
2022-12-12T03:05:51.699Z,-7.07
2022-12-12T03:08:32.528Z,-7.61
2022-12-12T03:11:04.685Z,-7.68
2022-12-12T03:13:42.923Z,-8.28
2022-12-12T03:16:24.717Z,-7.69
2022-12-12T03:19:05.338Z,-8.09
2022-12-12T03:21:55.788Z,-8.64
2022-12-12T03:24:48.795Z,-7.52
2022-12-12T03:27:24.543Z,-7.86
2022-12-12T03:29:59.893Z,-7.81
2022-12-12T03:32:33.462Z,-8.85
2022-12-12T03:35:07.214Z,-8.12
2022-12-12T03:37:37.810Z,-8.85
2022-12-12T03:40:11.494Z,-10.58
2022-12-12T03:42:43.998Z,-8.95
2022-12-12T03:45:16.679Z,-8.93
2022-12-12T03:48:13.542Z,-8.80
2022-12-12T03:50:49.024Z,-9.86
2022-12-12T03:53:24.805Z,-9.62
2022-12-12T03:56:02.636Z,-8.88
2022-12-12T03:58:35.729Z,-8.25
2022-12-12T04:01:07.907Z,-8.48
2022-12-12T04:03:37.672Z,-8.09
2022-12-12T04:06:26.809Z,-8.26
2022-12-12T04:09:19.323Z,-9.01
2022-12-12T04:12:22.940Z,-9.25
2022-12-12T04:15:12.126Z,-8.41
2022-12-12T04:17:51.731Z,-8.80
2022-12-12T04:21:04.166Z,-8.32
2022-12-12T04:23:38.274Z,-8.38
2022-12-12T04:26:37.152Z,-10.13
2022-12-12T04:29:09.748Z,-8.50
2022-12-12T04:31:42.763Z,-9.12
2022-12-12T04:34:30.883Z,-8.93
2022-12-12T04:36:59.561Z,-9.42
2022-12-12T04:39:28.890Z,-9.67
2022-12-12T04:41:57.481Z,-9.53
2022-12-12T04:44:27.298Z,-10.09
2022-12-12T04:46:59.242Z,-10.07
2022-12-12T04:49:29.273Z,-8.73
2022-12-12T04:52:26.661Z,-8.78
2022-12-12T04:55:05.627Z,-8.83
2022-12-12T04:57:39.825Z,-8.64
2022-12-12T05:00:11.755Z,-10.35
2022-12-12T05:03:13.061Z,-8.77
2022-12-12T05:05:48.855Z,-9.27
2022-12-12T05:08:28.418Z,-9.44
2022-12-12T05:10:57.362Z,-9.89
2022-12-12T05:13:30.087Z,-8.45
2022-12-12T05:15:58.835Z,-8.75
2022-12-12T05:18:25.750Z,-9.60
2022-12-12T05:20:52.768Z,-9.81
2022-12-12T05:23:22.098Z,-8.26
2022-12-12T05:25:48.863Z,-9.48
2022-12-12T05:28:15.609Z,-8.07
2022-12-12T05:30:42.672Z,-9.55
2022-12-12T05:33:09.377Z,-8.31
2022-12-12T05:35:36.737Z,-8.99
2022-12-12T05:38:03.770Z,-9.12
2022-12-12T05:40:30.863Z,-8.21
2022-12-12T05:42:57.603Z,-8.33
2022-12-12T05:45:26.609Z,-7.98
2022-12-12T05:47:53.431Z,-7.96
2022-12-12T05:50:20.137Z,-7.85
2022-12-12T05:52:46.867Z,-8.07
2022-12-12T05:55:14.247Z,-8.58
2022-12-12T05:57:41.079Z,-8.68
2022-12-12T06:00:08.851Z,-9.13
2022-12-12T06:02:35.756Z,-7.16
2022-12-12T06:05:02.665Z,-8.65
2022-12-12T06:07:29.541Z,-7.31
2022-12-12T06:09:56.218Z,-8.92
2022-12-12T06:12:23.041Z,-7.45
2022-12-12T06:14:49.850Z,-8.02
2022-12-12T06:17:17.203Z,-8.15
2022-12-12T06:19:45.483Z,-8.18
2022-12-12T06:22:12.535Z,-7.32
2022-12-12T06:24:39.383Z,-7.33
2022-12-12T06:27:06.106Z,-7.20
2022-12-12T06:29:33.349Z,-8.03
2022-12-12T06:32:00.064Z,-8.02
2022-12-12T06:34:26.760Z,-6.88
2022-12-12T06:36:53.415Z,-6.61
2022-12-12T06:39:20.059Z,-7.53
2022-12-12T06:41:48.969Z,-7.08
2022-12-12T06:44:15.764Z,-6.53
2022-12-12T06:46:44.986Z,-7.35
2022-12-12T06:49:11.752Z,-6.84
2022-12-12T06:51:44.152Z,-7.28
2022-12-12T06:54:12.825Z,-7.58
2022-12-12T06:56:46.288Z,-7.72
2022-12-12T06:59:15.546Z,-6.50
2022-12-12T07:01:42.372Z,-6.44
2022-12-12T07:04:11.502Z,-6.74
2022-12-12T07:06:38.109Z,-6.48
2022-12-12T07:09:04.908Z,-6.75
2022-12-12T07:11:31.514Z,-7.35
2022-12-12T07:13:59.738Z,-7.13
2022-12-12T07:16:26.513Z,-6.24
2022-12-12T07:18:53.373Z,-6.59
2022-12-12T07:21:21.008Z,-6.37
2022-12-12T07:23:48.105Z,-7.05
2022-12-12T07:26:17.382Z,-7.15
2022-12-12T07:28:44.502Z,-6.09
2022-12-12T07:31:14.764Z,-6.12
2022-12-12T07:33:44.540Z,-6.23
2022-12-12T07:36:13.850Z,-7.77
2022-12-12T07:38:40.908Z,-6.81
2022-12-12T07:41:10.034Z,-6.52
2022-12-12T07:43:43.312Z,-6.34
2022-12-12T07:46:14.504Z,-7.32
2022-12-12T07:48:42.099Z,-7.15
2022-12-12T07:51:09.462Z,-7.12
2022-12-12T07:53:36.734Z,-6.11
2022-12-12T07:56:08.781Z,-6.64
2022-12-12T07:58:36.128Z,-6.17
2022-12-12T08:01:14.669Z,-6.39
2022-12-12T08:03:43.513Z,-6.70
2022-12-12T08:06:10.379Z,-5.84
2022-12-12T08:08:37.396Z,-6.24
2022-12-12T08:11:09.588Z,-6.69
2022-12-12T08:13:37.667Z,-5.82
2022-12-12T08:16:06.105Z,-7.00
2022-12-12T08:18:33.277Z,-6.20
2022-12-12T08:20:59.988Z,-6.03
2022-12-12T08:23:26.825Z,-5.53
2022-12-12T08:25:54.862Z,-6.92
2022-12-12T08:28:21.541Z,-6.06
2022-12-12T08:30:50.123Z,-6.86
2022-12-12T08:33:17.216Z,-5.76
2022-12-12T08:35:43.863Z,-6.66
2022-12-12T08:38:10.526Z,-5.71
2022-12-12T08:40:37.207Z,-7.37
2022-12-12T08:43:04.083Z,-5.88
2022-12-12T08:45:30.693Z,-5.40
2022-12-12T08:47:58.644Z,-6.09
2022-12-12T08:50:25.574Z,-7.17
2022-12-12T08:52:52.858Z,-5.75
2022-12-12T08:55:19.546Z,-5.67
2022-12-12T08:57:46.322Z,-5.75
2022-12-12T09:00:13.466Z,-5.69
2022-12-12T09:02:40.318Z,-5.91
2022-12-12T09:05:08.006Z,-5.53
2022-12-12T09:07:35.262Z,-5.41
2022-12-12T09:10:02.583Z,-6.15
2022-12-12T09:12:29.357Z,-5.33
2022-12-12T09:14:56.024Z,-5.42
2022-12-12T09:17:23.060Z,-5.88
2022-12-12T09:19:49.880Z,-6.33
2022-12-12T09:22:17.918Z,-6.11
2022-12-12T09:24:44.571Z,-5.70
2022-12-12T09:27:11.311Z,-5.45
2022-12-12T09:29:37.897Z,-5.61
2022-12-12T09:32:06.653Z,-5.81
2022-12-12T09:34:34.288Z,-6.70
2022-12-12T09:37:01.509Z,-7.46
2022-12-12T09:39:28.153Z,-7.02
2022-12-12T09:41:55.548Z,-5.59
2022-12-12T09:44:25.908Z,-6.21
2022-12-12T09:47:02.463Z,-5.19
2022-12-12T09:49:50.366Z,-5.04
2022-12-12T09:52:31.145Z,-5.10
2022-12-12T09:55:11.468Z,-5.32
2022-12-12T09:57:54.567Z,-6.55
2022-12-12T10:00:21.438Z,-5.55
2022-12-12T10:03:06.981Z,-5.18
2022-12-12T10:06:28.179Z,-4.97
2022-12-12T10:09:19.434Z,-4.95
2022-12-12T10:11:54.777Z,-5.61
2022-12-12T10:14:45.432Z,-5.39
2022-12-12T10:17:17.939Z,-5.56
2022-12-12T10:19:51.500Z,-6.43
2022-12-12T10:22:33.050Z,-5.33
2022-12-12T10:25:11.259Z,-5.59
2022-12-12T10:27:37.926Z,-6.38
2022-12-12T10:30:16.013Z,-5.56
2022-12-12T10:33:03.143Z,-5.66
2022-12-12T10:35:41.910Z,-6.04
2022-12-12T10:38:22.024Z,-6.26
2022-12-12T10:41:04.019Z,-6.04
2022-12-12T10:43:58.278Z,-4.99
2022-12-12T10:46:27.730Z,-5.12
2022-12-12T10:48:54.733Z,-6.28
2022-12-12T10:51:23.973Z,-5.01
2022-12-12T10:53:50.651Z,-6.12
2022-12-12T10:56:26.044Z,-5.11
2022-12-12T10:58:58.744Z,-5.74
2022-12-12T11:02:07.775Z,-5.84
2022-12-12T11:04:21.662Z,-5.10
2022-12-12T11:06:51.949Z,-5.78
2022-12-12T11:09:23.294Z,-5.15
2022-12-12T11:12:16.174Z,-5.15
2022-12-12T11:14:50.795Z,-5.07
2022-12-12T11:17:29.266Z,-5.66
2022-12-12T11:20:01.605Z,-5.26
2022-12-12T11:22:32.731Z,-5.17
2022-12-12T11:25:00.450Z,-5.96
2022-12-12T11:27:34.571Z,-6.06
2022-12-12T11:30:23.894Z,-5.04
2022-12-12T11:32:54.719Z,-5.08
2022-12-12T11:35:33.288Z,-4.44
2022-12-12T11:38:07.732Z,-5.58
2022-12-12T11:40:37.069Z,-6.88
2022-12-12T11:43:25.445Z,-4.41
2022-12-12T11:46:15.509Z,-5.30
2022-12-12T11:48:51.588Z,-4.72
2022-12-12T11:51:40.825Z,-4.54
2022-12-12T11:54:22.474Z,-4.47
2022-12-12T11:56:57.767Z,-5.83
2022-12-12T11:59:47.148Z,-5.35
2022-12-12T12:02:48.020Z,-4.79
2022-12-12T12:05:26.796Z,-4.88
2022-12-12T12:08:11.814Z,-4.93
2022-12-12T12:11:00.346Z,-4.92
2022-12-12T12:13:43.106Z,-6.16
2022-12-12T12:16:20.302Z,-5.03
2022-12-12T12:19:14.087Z,-4.84
2022-12-12T12:21:57.298Z,-6.09
2022-12-12T12:24:28.122Z,-4.95
2022-12-12T12:26:57.615Z,-5.16
2022-12-12T12:29:38.356Z,-5.33
2022-12-12T12:32:08.810Z,-5.14
2022-12-12T12:34:59.021Z,-6.23
2022-12-12T12:37:50.340Z,-4.84
2022-12-12T12:40:30.963Z,-4.83
2022-12-12T12:52:43.387Z,-4.66
2022-12-12T12:55:19.736Z,-6.23
2022-12-12T12:57:51.504Z,-6.20
2022-12-12T13:15:14.409Z,-4.57
2022-12-12T13:17:51.772Z,-5.58
2022-12-12T13:23:51.801Z,-5.08
2022-12-12T13:26:24.288Z,-4.93
2022-12-12T13:41:09.971Z,-5.22
2022-12-12T13:43:45.034Z,-6.24
2022-12-12T13:46:24.651Z,-5.27
2022-12-12T13:49:03.492Z,-6.42
2022-12-12T13:51:34.805Z,-5.56
2022-12-12T13:54:12.597Z,-5.59
2022-12-12T13:56:42.169Z,-5.39
2022-12-12T13:59:25.156Z,-5.49
2022-12-12T14:01:55.510Z,-6.15
2022-12-12T14:04:26.551Z,-5.65
2022-12-12T14:07:21.785Z,-5.54
2022-12-12T14:09:52.188Z,-6.60
2022-12-12T14:12:30.676Z,-6.82
2022-12-12T14:15:05.548Z,-6.18
2022-12-12T14:17:41.723Z,-7.24
2022-12-12T14:20:25.268Z,-5.60
2022-12-12T14:22:52.617Z,-5.56
2022-12-12T14:25:29.115Z,-5.56
2022-12-12T14:28:15.893Z,-5.65
2022-12-12T14:31:07.564Z,-5.53
2022-12-12T14:33:46.132Z,-5.43
2022-12-12T14:36:45.177Z,-5.39
2022-12-12T14:39:32.946Z,-5.37
2022-12-12T14:42:05.086Z,-5.75
2022-12-12T14:44:36.616Z,-5.75
2022-12-12T14:47:09.437Z,-5.66
2022-12-12T14:49:36.498Z,-5.29
2022-12-12T14:52:03.786Z,-6.14
2022-12-12T14:54:31.044Z,-5.96
2022-12-12T14:56:59.354Z,-5.87
2022-12-12T14:59:32.939Z,-5.58
2022-12-12T15:02:16.551Z,-6.85
2022-12-12T15:04:47.142Z,-5.38
2022-12-12T15:07:32.180Z,-5.50
2022-12-12T15:09:59.248Z,-5.50
2022-12-12T15:12:33.387Z,-6.33
2022-12-12T15:15:00.661Z,-5.32
2022-12-12T15:17:37.389Z,-7.34
2022-12-12T15:20:09.659Z,-5.31
2022-12-12T15:22:40.479Z,-6.85
2022-12-12T15:25:28.017Z,-6.10
2022-12-12T15:27:56.728Z,-5.56
2022-12-12T15:30:32.578Z,-5.44
2022-12-12T15:33:01.027Z,-5.44
2022-12-12T15:35:28.293Z,-5.85
2022-12-12T15:38:02.380Z,-6.95
2022-12-12T15:40:33.033Z,-5.45
2022-12-12T15:43:02.092Z,-6.24
2022-12-12T15:45:39.684Z,-5.40
2022-12-12T15:48:16.517Z,-6.89
2022-12-12T15:50:44.994Z,-5.52
2022-12-12T15:53:19.197Z,-6.00
2022-12-12T15:56:02.455Z,-5.58
2022-12-12T15:58:33.455Z,-6.20
2022-12-12T16:01:29.200Z,-5.51
2022-12-12T16:04:05.189Z,-5.67
2022-12-12T16:06:43.955Z,-5.96
2022-12-12T16:09:10.653Z,-5.89
2022-12-12T16:11:54.252Z,-6.03
2022-12-12T16:14:25.514Z,-5.96
2022-12-12T16:17:04.651Z,-5.87
2022-12-12T16:19:43.896Z,-6.08
2022-12-12T16:22:31.004Z,-6.41
2022-12-12T16:25:15.215Z,-7.96
2022-12-12T16:27:41.950Z,-7.26
2022-12-12T16:30:12.762Z,-6.97
2022-12-12T16:32:40.427Z,-8.11
2022-12-12T16:35:07.505Z,-7.83
2022-12-12T16:37:34.342Z,-6.96
2022-12-12T16:40:01.048Z,-6.33
2022-12-12T16:42:28.208Z,-7.23
2022-12-12T16:44:54.856Z,-7.13
2022-12-12T16:47:24.416Z,-7.50
2022-12-12T16:49:52.359Z,-7.19
2022-12-12T16:52:20.703Z,-6.48
2022-12-12T16:54:53.317Z,-7.53
2022-12-12T16:57:21.709Z,-6.47
2022-12-12T16:59:50.888Z,-7.70
2022-12-12T17:02:23.539Z,-6.68
2022-12-12T17:04:51.493Z,-6.93
2022-12-12T17:07:18.652Z,-7.11
2022-12-12T17:09:45.563Z,-6.67
2022-12-12T17:12:13.279Z,-6.82
2022-12-12T17:14:40.209Z,-7.28
2022-12-12T17:17:07.003Z,-7.92
2022-12-12T17:19:34.003Z,-7.54
2022-12-12T17:22:00.777Z,-9.31
2022-12-12T17:24:28.441Z,-8.93
2022-12-12T17:26:55.227Z,-6.79
2022-12-12T17:29:22.431Z,-7.67
2022-12-12T17:31:49.334Z,-7.33
2022-12-12T17:34:16.229Z,-6.85
2022-12-12T17:36:42.932Z,-7.24
2022-12-12T17:39:11.076Z,-6.78
2022-12-12T17:41:38.460Z,-7.66
2022-12-12T17:44:05.230Z,-8.08
2022-12-12T17:46:32.595Z,-7.66
2022-12-12T17:49:01.759Z,-6.69
2022-12-12T17:51:29.425Z,-8.47
2022-12-12T17:53:56.528Z,-7.89
2022-12-12T17:56:24.648Z,-6.89
2022-12-12T17:58:51.538Z,-8.11
2022-12-12T18:01:27.711Z,-6.88
2022-12-12T18:03:55.832Z,-6.81
2022-12-12T18:06:23.280Z,-7.71
2022-12-12T18:08:52.393Z,-7.30
2022-12-12T18:11:26.831Z,-6.88
2022-12-12T18:13:57.553Z,-7.46
2022-12-12T18:16:27.130Z,-7.48
2022-12-12T18:18:56.013Z,-7.18
2022-12-12T18:24:13.146Z,-7.73
2022-12-12T18:26:40.605Z,-6.96
2022-12-12T18:29:08.967Z,-6.98
2022-12-12T18:31:36.139Z,-7.37
2022-12-12T18:34:03.879Z,-8.85
2022-12-12T18:36:31.286Z,-6.97
2022-12-12T18:39:00.346Z,-7.54
2022-12-12T18:41:28.299Z,-7.42
2022-12-12T18:43:55.859Z,-8.71
2022-12-12T18:46:24.734Z,-6.97
2022-12-12T18:48:51.580Z,-7.33
2022-12-12T18:51:20.981Z,-9.24
2022-12-12T18:53:49.449Z,-7.58
2022-12-12T18:56:22.465Z,-7.46
2022-12-12T18:58:49.798Z,-7.48
2022-12-12T19:01:19.402Z,-8.09
2022-12-12T19:03:50.651Z,-7.58
2022-12-12T19:06:20.676Z,-7.15
2022-12-12T19:08:47.812Z,-7.18
2022-12-12T19:11:16.049Z,-7.31
2022-12-12T19:13:43.150Z,-7.33
2022-12-12T19:16:15.786Z,-7.13
2022-12-12T19:18:42.984Z,-8.15
2022-12-12T19:21:21.401Z,-7.11
2022-12-12T19:23:48.417Z,-7.01
2022-12-12T19:26:28.000Z,-7.29
2022-12-12T19:28:59.552Z,-7.05
2022-12-12T19:31:27.126Z,-7.04
2022-12-12T19:33:54.170Z,-7.01
2022-12-12T19:36:23.902Z,-7.93
2022-12-12T19:38:54.028Z,-8.20
2022-12-12T19:41:22.176Z,-7.29
2022-12-12T19:43:50.265Z,-7.11
2022-12-12T19:46:27.453Z,-9.26
2022-12-12T19:48:59.031Z,-7.40
2022-12-12T19:51:27.258Z,-7.11
2022-12-12T19:53:56.637Z,-7.14
2022-12-12T19:56:31.883Z,-7.31
2022-12-12T19:58:59.843Z,-7.73
2022-12-12T20:01:32.052Z,-7.20
2022-12-12T20:04:02.978Z,-8.35
2022-12-12T20:06:29.797Z,-8.36
2022-12-12T20:08:59.759Z,-7.71
2022-12-12T20:11:26.509Z,-7.20
2022-12-12T20:13:55.772Z,-7.58
2022-12-12T20:16:26.106Z,-7.15
2022-12-12T20:18:53.768Z,-7.12
2022-12-12T20:21:59.304Z,-7.29
2022-12-12T20:24:12.460Z,-8.91
2022-12-12T20:26:40.221Z,-7.36
2022-12-12T20:29:08.334Z,-8.28
2022-12-12T20:31:38.074Z,-7.26
2022-12-12T20:34:05.315Z,-7.50
2022-12-12T20:36:34.904Z,-9.01
2022-12-12T20:39:05.185Z,-7.16
2022-12-12T20:41:36.286Z,-8.42
2022-12-12T20:44:05.107Z,-7.21
2022-12-12T20:46:37.284Z,-7.11
2022-12-12T20:49:07.474Z,-7.21
2022-12-12T20:54:22.321Z,-7.25
2022-12-12T20:56:49.713Z,-8.08
2022-12-12T20:59:16.487Z,-8.12
2022-12-12T21:01:43.276Z,-7.15
2022-12-12T21:04:10.069Z,-7.89
2022-12-12T21:06:39.895Z,-7.15
2022-12-12T21:09:09.669Z,-7.23
2022-12-12T21:11:38.052Z,-8.25
2022-12-12T21:14:05.637Z,-7.16
2022-12-12T21:16:35.553Z,-7.49
2022-12-12T21:19:09.617Z,-8.21
2022-12-12T21:21:37.368Z,-7.08
2022-12-12T21:24:05.024Z,-7.00
2022-12-12T21:26:32.219Z,-7.63
2022-12-12T21:29:01.843Z,-7.09
2022-12-12T21:31:34.363Z,-8.19
2022-12-12T21:34:01.348Z,-7.13
2022-12-12T21:36:29.794Z,-7.13
2022-12-12T21:38:59.137Z,-7.17
2022-12-12T21:41:26.090Z,-7.14
2022-12-12T21:43:53.065Z,-7.17
2022-12-12T21:46:22.668Z,-7.56
2022-12-12T21:49:09.032Z,-7.17
2022-12-12T21:51:36.044Z,-7.31
2022-12-12T21:54:04.456Z,-7.15
2022-12-12T21:56:31.286Z,-9.84
2022-12-12T21:58:58.360Z,-7.28
2022-12-12T22:01:25.502Z,-7.08
2022-12-12T22:03:53.764Z,-7.91
2022-12-12T22:06:22.978Z,-7.00
2022-12-12T22:08:50.293Z,-7.97
2022-12-12T22:11:23.867Z,-7.13
2022-12-12T22:14:06.110Z,-7.08
2022-12-12T22:16:33.645Z,-7.97
2022-12-12T22:19:05.981Z,-7.17
2022-12-12T22:21:34.001Z,-8.79
2022-12-12T22:24:01.522Z,-7.07
2022-12-12T22:26:30.937Z,-7.00
2022-12-12T22:29:00.411Z,-7.77
2022-12-12T22:31:29.605Z,-7.58
2022-12-12T22:33:59.498Z,-8.19
2022-12-12T22:36:29.104Z,-7.17
2022-12-12T22:38:57.184Z,-7.17
2022-12-12T22:41:25.781Z,-7.63
2022-12-12T22:43:59.637Z,-7.21
2022-12-12T22:46:27.028Z,-7.87
2022-12-12T22:48:56.153Z,-8.12
2022-12-12T22:51:28.528Z,-7.33
2022-12-12T22:53:57.273Z,-8.15
2022-12-12T22:56:24.308Z,-7.74
2022-12-12T22:58:51.018Z,-8.26
2022-12-12T23:01:22.662Z,-8.35
2022-12-12T23:03:50.153Z,-7.43
2022-12-12T23:06:19.525Z,-7.47
2022-12-12T23:08:54.526Z,-7.50
2022-12-12T23:11:24.066Z,-8.16
2022-12-12T23:13:53.157Z,-7.32
2022-12-12T23:16:21.350Z,-7.22
2022-12-12T23:18:48.595Z,-7.99
2022-12-12T23:21:18.312Z,-8.08
2022-12-12T23:23:45.714Z,-8.47
2022-12-12T23:26:15.672Z,-8.35
2022-12-12T23:28:43.537Z,-8.43
2022-12-12T23:31:12.651Z,-7.25
2022-12-12T23:33:40.461Z,-7.51
2022-12-12T23:36:15.916Z,-7.22
2022-12-12T23:38:42.832Z,-7.18
2022-12-12T23:41:12.261Z,-8.72
2022-12-12T23:43:40.742Z,-7.25
2022-12-12T23:46:27.963Z,-7.30
2022-12-12T23:48:58.520Z,-7.25
2022-12-12T23:51:26.872Z,-7.26
2022-12-12T23:53:56.424Z,-8.25
2022-12-12T23:56:23.244Z,-7.48
2022-12-12T23:58:51.235Z,-8.16
